Time;durP1;ratioP1;P1;durP2;ratioP2;P2;SDS_P1;SDS_P2;PMS_P1;PMS_P2;Temp;Humidity;BMP_temperature;BMP_pressure;BME280_temperature;BME280_humidity;BME280_pressure;Samples;Min_cycle;Max_cycle;Signal;HPM_P1;HPM_P2
2023/09/16 00:01:08;;;;;;;;;;;23.10;57.50;;;;;;5031844;28;88635;-54
2023/09/16 00:03:35;;;;;;;;;;;23.10;57.50;;;;;;5029992;28;87342;-58
2023/09/16 00:06:00;;;;;;;;;;;23.10;57.40;;;;;;5033263;28;87988;-54
2023/09/16 00:08:26;;;;;;;;;;;23.10;57.50;;;;;;5030539;28;87983;-53
2023/09/16 00:10:51;;;;;;;;;;;23.10;57.50;;;;;;5032422;28;87530;-49
2023/09/16 00:13:18;;;;;;;;;;;23.10;57.60;;;;;;5030936;28;90573;-54
2023/09/16 00:15:48;;;;;;;;;;;23.00;57.50;;;;;;5032068;28;88472;-51
2023/09/16 00:18:17;;;;;;;;;;;23.00;57.50;;;;;;5030784;28;87140;-54
2023/09/16 00:20:43;;;;;;;;;;;23.00;57.50;;;;;;5030387;28;88193;-54
2023/09/16 00:23:09;;;;;;;;;;;23.00;57.50;;;;;;5033439;28;86337;-49
2023/09/16 00:25:36;;;;;;;;;;;23.00;57.50;;;;;;5031420;28;88727;-55
2023/09/16 00:28:01;;;;;;;;;;;23.00;57.00;;;;;;5031731;28;89679;-54
2023/09/16 00:30:27;;;;;;;;;;;23.00;57.50;;;;;;5030263;28;88015;-51
2023/09/16 00:32:52;;;;;;;;;;;23.00;57.50;;;;;;5031069;27;89577;-55
2023/09/16 00:35:19;;;;;;;;;;;23.00;57.50;;;;;;5033323;28;87687;-56
2023/09/16 00:37:46;;;;;;;;;;;23.00;57.50;;;;;;5030741;28;87105;-53
2023/09/16 00:40:12;;;;;;;;;;;23.00;57.50;;;;;;5034801;28;87618;-50
2023/09/16 00:42:38;;;;;;;;;;;23.00;57.50;;;;;;5031532;28;87171;-53
2023/09/16 00:45:10;;;;;;;;;;;23.00;57.50;;;;;;5031031;27;88703;-54
2023/09/16 00:47:42;;;;;;;;;;;23.00;57.80;;;;;;5028803;28;88741;-48
2023/09/16 00:50:08;;;;;;;;;;;23.00;57.50;;;;;;5032360;28;87153;-52
2023/09/16 00:52:37;;;;;;;;;;;23.00;57.50;;;;;;5031348;28;89233;-56
2023/09/16 00:55:03;;;;;;;;;;;23.00;57.50;;;;;;5029141;28;90446;-50
2023/09/16 00:57:29;;;;;;;;;;;22.90;57.40;;;;;;5036849;28;87079;-53
2023/09/16 00:59:55;;;;;;;;;;;22.90;58.10;;;;;;5033528;28;87087;-53
2023/09/16 01:02:21;;;;;;;;;;;22.90;57.50;;;;;;5034861;28;88749;-53
2023/09/16 01:04:46;;;;;;;;;;;22.90;57.50;;;;;;5034548;28;87900;-52
2023/09/16 01:07:14;;;;;;;;;;;22.90;57.40;;;;;;5034605;28;88106;-56
2023/09/16 01:09:40;;;;;;;;;;;22.90;57.40;;;;;;5035466;28;87115;-53
2023/09/16 01:12:07;;;;;;;;;;;22.90;57.50;;;;;;5036401;28;87765;-55
2023/09/16 01:14:33;;;;;;;;;;;22.90;57.40;;;;;;5032675;28;88521;-52
2023/09/16 01:17:02;;;;;;;;;;;22.90;57.50;;;;;;5035472;28;87187;-51
2023/09/16 01:19:36;;;;;;;;;;;22.80;57.40;;;;;;5030596;28;90438;-54
2023/09/16 01:22:02;;;;;;;;;;;22.90;57.70;;;;;;5039100;28;88360;-55
2023/09/16 01:24:27;;;;;;;;;;;22.80;57.60;;;;;;5032600;27;89278;-49
2023/09/16 01:26:53;;;;;;;;;;;22.90;57.70;;;;;;5034364;28;88377;-51
2023/09/16 01:29:19;;;;;;;;;;;22.80;57.60;;;;;;5035484;28;87280;-53
2023/09/16 01:31:46;;;;;;;;;;;22.80;57.60;;;;;;5034378;28;87966;-52
2023/09/16 01:34:24;;;;;;;;;;;22.80;57.60;;;;;;5032802;28;88555;-54
2023/09/16 01:36:52;;;;;;;;;;;22.80;57.50;;;;;;5033765;28;86438;-56
2023/09/16 01:39:21;;;;;;;;;;;22.80;57.60;;;;;;5034617;27;87101;-53
2023/09/16 01:41:47;;;;;;;;;;;22.70;57.60;;;;;;5034485;28;89415;-56
2023/09/16 01:44:13;;;;;;;;;;;22.80;57.70;;;;;;5035367;28;88731;-50
2023/09/16 01:46:38;;;;;;;;;;;22.80;57.70;;;;;;5035763;28;88468;-52
2023/09/16 01:49:04;;;;;;;;;;;22.70;57.70;;;;;;5031520;28;87143;-51
2023/09/16 01:51:29;;;;;;;;;;;22.80;57.70;;;;;;5033239;28;87626;-55
2023/09/16 01:53:55;;;;;;;;;;;22.70;57.70;;;;;;5034445;28;88122;-53
2023/09/16 01:56:20;;;;;;;;;;;22.70;57.80;;;;;;5034237;28;87119;-52
2023/09/16 01:58:46;;;;;;;;;;;22.70;57.90;;;;;;5035300;28;87567;-58
2023/09/16 02:01:11;;;;;;;;;;;22.70;58.50;;;;;;5032908;28;87413;-51
2023/09/16 02:03:37;;;;;;;;;;;22.70;57.90;;;;;;5031059;28;87132;-50
2023/09/16 02:06:05;;;;;;;;;;;22.70;57.90;;;;;;5038294;28;87936;-51
2023/09/16 02:08:31;;;;;;;;;;;22.70;57.90;;;;;;5032143;28;88047;-51
2023/09/16 02:10:57;;;;;;;;;;;22.70;57.90;;;;;;5034490;27;87747;-54
2023/09/16 02:13:22;;;;;;;;;;;22.70;57.90;;;;;;5034085;28;88045;-49
2023/09/16 02:15:48;;;;;;;;;;;22.70;57.90;;;;;;5034809;28;87087;-51
2023/09/16 02:18:13;;;;;;;;;;;22.70;58.00;;;;;;5032033;28;87802;-54
2023/09/16 02:20:39;;;;;;;;;;;22.60;57.90;;;;;;5031306;28;88485;-52
2023/09/16 02:23:04;;;;;;;;;;;22.60;57.80;;;;;;5035302;28;87170;-51
2023/09/16 02:25:32;;;;;;;;;;;22.60;57.90;;;;;;5033106;28;88958;-50
2023/09/16 02:27:57;;;;;;;;;;;22.60;57.90;;;;;;5036301;28;88582;-55
2023/09/16 02:30:23;;;;;;;;;;;22.60;58.00;;;;;;5033465;28;87873;-51
2023/09/16 02:32:48;;;;;;;;;;;22.60;57.90;;;;;;5032379;28;90377;-56
2023/09/16 02:35:14;;;;;;;;;;;22.60;57.30;;;;;;5032003;28;86969;-54
2023/09/16 02:37:39;;;;;;;;;;;22.60;57.90;;;;;;5031659;27;89367;-51
2023/09/16 02:40:05;;;;;;;;;;;22.60;57.90;;;;;;5034938;28;88733;-56
2023/09/16 02:42:31;;;;;;;;;;;22.60;58.00;;;;;;5033574;28;87102;-52
2023/09/16 02:44:56;;;;;;;;;;;22.50;57.90;;;;;;5034131;28;87615;-55
2023/09/16 02:47:22;;;;;;;;;;;22.50;57.90;;;;;;5033369;28;87411;-51
2023/09/16 02:49:47;;;;;;;;;;;22.50;58.00;;;;;;5034324;28;86405;-50
2023/09/16 02:52:15;;;;;;;;;;;22.50;58.00;;;;;;5033695;28;88471;-55
2023/09/16 02:54:40;;;;;;;;;;;22.50;57.90;;;;;;5031103;28;87305;-56
2023/09/16 02:57:06;;;;;;;;;;;22.50;57.90;;;;;;5034283;28;88713;-50
2023/09/16 02:59:31;;;;;;;;;;;22.50;57.90;;;;;;5031303;28;88464;-58
2023/09/16 03:01:57;;;;;;;;;;;22.50;58.00;;;;;;5033165;28;87174;-51
2023/09/16 03:04:22;;;;;;;;;;;22.50;58.00;;;;;;5030469;28;87884;-51
2023/09/16 03:06:48;;;;;;;;;;;22.50;58.10;;;;;;5032338;28;87031;-51
2023/09/16 03:09:14;;;;;;;;;;;22.40;58.00;;;;;;5034057;28;87197;-58
2023/09/16 03:11:40;;;;;;;;;;;22.40;58.10;;;;;;5033804;28;87639;-53
2023/09/16 03:14:05;;;;;;;;;;;22.50;58.10;;;;;;5034265;28;86393;-56
2023/09/16 03:16:31;;;;;;;;;;;22.40;58.10;;;;;;5032043;28;86954;-52
2023/09/16 03:18:57;;;;;;;;;;;22.40;58.00;;;;;;5030731;28;87982;-48
2023/09/16 03:21:24;;;;;;;;;;;22.40;58.20;;;;;;5031913;28;88021;-53
2023/09/16 03:23:50;;;;;;;;;;;22.40;58.10;;;;;;5033534;28;88493;-55
2023/09/16 03:26:15;;;;;;;;;;;22.40;58.10;;;;;;5029773;28;90909;-51
2023/09/16 03:28:42;;;;;;;;;;;22.40;58.20;;;;;;5032679;28;87168;-53
2023/09/16 03:31:08;;;;;;;;;;;22.40;58.30;;;;;;5036840;28;87032;-52
2023/09/16 03:33:33;;;;;;;;;;;22.30;58.20;;;;;;5031893;28;87185;-49
2023/09/16 03:35:59;;;;;;;;;;;22.30;58.20;;;;;;5030460;28;87460;-53
2023/09/16 03:38:28;;;;;;;;;;;22.30;58.20;;;;;;5032947;28;87911;-53
2023/09/16 03:40:54;;;;;;;;;;;22.30;58.20;;;;;;5031226;28;87078;-53
2023/09/16 03:43:20;;;;;;;;;;;22.30;58.30;;;;;;5031648;28;87938;-54
2023/09/16 03:45:45;;;;;;;;;;;22.30;58.30;;;;;;5030250;28;89407;-50
2023/09/16 03:48:11;;;;;;;;;;;22.30;58.40;;;;;;5033658;28;87125;-54
2023/09/16 03:50:36;;;;;;;;;;;22.30;58.30;;;;;;5029388;28;87932;-53
2023/09/16 03:53:02;;;;;;;;;;;22.30;58.40;;;;;;5034810;28;89407;-48
2023/09/16 03:55:28;;;;;;;;;;;22.30;58.40;;;;;;5032801;28;88637;-52
2023/09/16 03:57:53;;;;;;;;;;;22.20;58.40;;;;;;5031038;28;88079;-57
2023/09/16 04:00:19;;;;;;;;;;;22.20;58.40;;;;;;5032160;28;87101;-50
2023/09/16 04:02:44;;;;;;;;;;;22.20;58.40;;;;;;5034059;28;87576;-55
2023/09/16 04:05:10;;;;;;;;;;;22.20;58.40;;;;;;5028982;28;87723;-54
2023/09/16 04:07:36;;;;;;;;;;;22.20;58.40;;;;;;5031510;28;87092;-49
2023/09/16 04:10:01;;;;;;;;;;;22.20;58.40;;;;;;5031363;27;89091;-49
2023/09/16 04:12:27;;;;;;;;;;;22.20;58.50;;;;;;5032350;28;87409;-50
2023/09/16 04:14:53;;;;;;;;;;;22.20;58.50;;;;;;5036027;28;87134;-50
2023/09/16 04:17:19;;;;;;;;;;;22.20;58.50;;;;;;5030352;28;88381;-50
2023/09/16 04:19:44;;;;;;;;;;;22.20;58.50;;;;;;5032766;28;87614;-52
2023/09/16 04:22:10;;;;;;;;;;;22.10;58.50;;;;;;5030474;28;88647;-54
2023/09/16 04:24:35;;;;;;;;;;;22.10;58.50;;;;;;5032689;28;88706;-50
2023/09/16 04:27:01;;;;;;;;;;;22.10;58.50;;;;;;5032272;28;86365;-56
2023/09/16 04:29:26;;;;;;;;;;;22.10;58.50;;;;;;5029223;28;87269;-55
2023/09/16 04:31:52;;;;;;;;;;;22.10;58.60;;;;;;5035897;28;88736;-50
2023/09/16 04:34:17;;;;;;;;;;;22.10;58.60;;;;;;5036153;28;88014;-52
2023/09/16 04:36:43;;;;;;;;;;;22.10;58.50;;;;;;5036130;28;88129;-50
2023/09/16 04:39:08;;;;;;;;;;;22.10;58.60;;;;;;5031986;28;87187;-52
2023/09/16 04:41:34;;;;;;;;;;;22.10;58.60;;;;;;5033416;28;87768;-51
2023/09/16 04:44:00;;;;;;;;;;;22.00;58.60;;;;;;5029159;28;88598;-53
2023/09/16 04:46:25;;;;;;;;;;;22.10;58.60;;;;;;5035419;28;87012;-53
2023/09/16 04:48:51;;;;;;;;;;;22.10;58.60;;;;;;5034999;28;88601;-52
2023/09/16 04:51:16;;;;;;;;;;;22.10;58.60;;;;;;5036272;28;87601;-57
2023/09/16 04:53:42;;;;;;;;;;;22.00;58.70;;;;;;5031756;28;87196;-56
2023/09/16 04:56:10;;;;;;;;;;;22.00;58.70;;;;;;5033314;27;88904;-51
2023/09/16 04:58:36;;;;;;;;;;;22.00;58.50;;;;;;5035693;28;89430;-51
2023/09/16 05:01:05;;;;;;;;;;;22.00;58.70;;;;;;5035840;27;89554;-56
2023/09/16 05:03:30;;;;;;;;;;;22.00;58.60;;;;;;5029572;28;89767;-52
2023/09/16 05:05:56;;;;;;;;;;;22.00;58.70;;;;;;5035331;28;87112;-53
2023/09/16 05:08:21;;;;;;;;;;;22.00;58.70;;;;;;5030700;28;88009;-52
2023/09/16 05:10:54;;;;;;;;;;;22.00;58.80;;;;;;5034254;28;90482;-50
2023/09/16 05:13:20;;;;;;;;;;;22.00;58.80;;;;;;5031784;28;87348;-53
2023/09/16 05:15:47;;;;;;;;;;;22.00;58.70;;;;;;5034742;28;87813;-52
2023/09/16 05:18:12;;;;;;;;;;;22.00;58.70;;;;;;5030737;28;88014;-50
2023/09/16 05:20:38;;;;;;;;;;;22.00;58.70;;;;;;5035870;28;87524;-52
2023/09/16 05:23:03;;;;;;;;;;;22.00;58.80;;;;;;5031744;28;88857;-49
2023/09/16 05:25:29;;;;;;;;;;;21.90;58.70;;;;;;5034911;28;87083;-52
2023/09/16 05:27:54;;;;;;;;;;;21.90;58.60;;;;;;5032250;27;87230;-55
2023/09/16 05:30:20;;;;;;;;;;;21.90;58.90;;;;;;5028381;28;88271;-53
2023/09/16 05:32:46;;;;;;;;;;;21.90;58.90;;;;;;5035032;28;87011;-54
2023/09/16 05:35:11;;;;;;;;;;;21.90;58.80;;;;;;5034726;28;87188;-49
2023/09/16 05:37:36;;;;;;;;;;;21.90;58.80;;;;;;5031814;28;88166;-55
2023/09/16 05:40:02;;;;;;;;;;;21.90;58.80;;;;;;5033625;28;86548;-54
2023/09/16 05:42:28;;;;;;;;;;;21.90;59.00;;;;;;5031050;28;88360;-53
2023/09/16 05:44:53;;;;;;;;;;;21.90;58.80;;;;;;5037102;28;87173;-53
2023/09/16 05:47:19;;;;;;;;;;;21.90;58.90;;;;;;5029003;28;88640;-53
2023/09/16 05:49:44;;;;;;;;;;;21.80;58.90;;;;;;5028425;28;88193;-54
2023/09/16 05:52:10;;;;;;;;;;;21.90;58.80;;;;;;5032646;28;87169;-53
2023/09/16 05:54:35;;;;;;;;;;;21.90;59.00;;;;;;5033304;28;87812;-55
2023/09/16 05:57:01;;;;;;;;;;;21.80;59.00;;;;;;5030063;28;88449;-49
2023/09/16 05:59:27;;;;;;;;;;;21.80;59.00;;;;;;5032214;28;87249;-52
2023/09/16 06:01:53;;;;;;;;;;;21.80;59.10;;;;;;5034859;28;87946;-52
2023/09/16 06:04:18;;;;;;;;;;;21.80;59.10;;;;;;5030424;28;86358;-57
2023/09/16 06:06:45;;;;;;;;;;;21.80;59.20;;;;;;5030570;28;88343;-53
2023/09/16 06:09:10;;;;;;;;;;;21.70;59.10;;;;;;5031573;28;88110;-55
2023/09/16 06:11:36;;;;;;;;;;;21.80;59.20;;;;;;5033709;28;88638;-50
2023/09/16 06:14:01;;;;;;;;;;;21.80;59.20;;;;;;5033241;27;88849;-53
2023/09/16 06:16:27;;;;;;;;;;;21.80;59.30;;;;;;5024666;28;90739;-49
2023/09/16 06:18:52;;;;;;;;;;;21.80;59.20;;;;;;5035267;28;87319;-53
2023/09/16 06:21:18;;;;;;;;;;;21.70;59.20;;;;;;5032030;28;88856;-55
2023/09/16 06:23:44;;;;;;;;;;;21.70;59.20;;;;;;5032079;28;88103;-55
2023/09/16 06:26:12;;;;;;;;;;;21.70;59.30;;;;;;5032055;28;88944;-53
2023/09/16 06:28:38;;;;;;;;;;;21.70;59.30;;;;;;5035094;28;87268;-51
2023/09/16 06:31:04;;;;;;;;;;;21.70;59.30;;;;;;5033253;28;87289;-51
2023/09/16 06:33:29;;;;;;;;;;;21.70;59.30;;;;;;5033325;28;87843;-52
2023/09/16 06:35:55;;;;;;;;;;;21.70;59.40;;;;;;5027556;28;88438;-51
2023/09/16 06:38:20;;;;;;;;;;;21.70;59.40;;;;;;5033121;28;87135;-52
2023/09/16 06:40:46;;;;;;;;;;;21.70;59.40;;;;;;5030641;28;87881;-50
2023/09/16 06:43:11;;;;;;;;;;;21.70;59.40;;;;;;5029262;28;87944;-51
2023/09/16 06:45:37;;;;;;;;;;;21.70;59.30;;;;;;5037448;28;87996;-52
2023/09/16 06:48:02;;;;;;;;;;;21.70;59.40;;;;;;5034177;28;88473;-51
2023/09/16 06:50:28;;;;;;;;;;;21.60;59.30;;;;;;5032334;28;87275;-56
2023/09/16 06:52:53;;;;;;;;;;;21.60;59.40;;;;;;5029581;28;88751;-55
2023/09/16 06:55:19;;;;;;;;;;;21.60;59.40;;;;;;5031290;28;88590;-53
2023/09/16 06:57:44;;;;;;;;;;;21.60;59.50;;;;;;5032567;28;87077;-47
2023/09/16 07:00:10;;;;;;;;;;;21.60;59.40;;;;;;5032336;28;88065;-46
2023/09/16 07:02:36;;;;;;;;;;;21.60;59.50;;;;;;5027021;28;89399;-51
2023/09/16 07:05:02;;;;;;;;;;;21.60;59.50;;;;;;5031299;28;87658;-51
2023/09/16 07:07:28;;;;;;;;;;;21.60;59.40;;;;;;5034969;28;87546;-57
2023/09/16 07:09:56;;;;;;;;;;;21.60;59.40;;;;;;5028438;28;87984;-56
2023/09/16 07:12:22;;;;;;;;;;;21.60;59.40;;;;;;5027935;28;90458;-52
2023/09/16 07:14:48;;;;;;;;;;;21.60;59.40;;;;;;5032643;28;88338;-56
2023/09/16 07:17:14;;;;;;;;;;;21.60;59.50;;;;;;5032898;28;86384;-55
2023/09/16 07:19:40;;;;;;;;;;;21.50;59.50;;;;;;5032162;28;88844;-52
2023/09/16 07:22:05;;;;;;;;;;;21.50;59.50;;;;;;5030061;27;88101;-49
2023/09/16 07:24:31;;;;;;;;;;;21.50;59.50;;;;;;5032225;28;88072;-52
2023/09/16 07:26:56;;;;;;;;;;;21.50;59.50;;;;;;5031751;28;88591;-51
2023/09/16 07:29:22;;;;;;;;;;;21.50;59.50;;;;;;5029198;28;87140;-52
2023/09/16 07:31:48;;;;;;;;;;;21.50;59.50;;;;;;5032676;28;88868;-52
2023/09/16 07:34:15;;;;;;;;;;;21.50;59.60;;;;;;5031826;28;88192;-46
2023/09/16 07:36:41;;;;;;;;;;;21.50;59.50;;;;;;5031313;28;87151;-53
2023/09/16 07:39:07;;;;;;;;;;;21.50;59.40;;;;;;5030923;28;88767;-51
2023/09/16 07:41:33;;;;;;;;;;;21.50;59.60;;;;;;5031403;28;87427;-50
2023/09/16 07:43:58;;;;;;;;;;;21.50;59.50;;;;;;5034476;28;87206;-55
2023/09/16 07:46:24;;;;;;;;;;;21.50;59.50;;;;;;5032133;28;89023;-54
2023/09/16 07:48:50;;;;;;;;;;;21.50;59.50;;;;;;5031828;27;88000;-49
2023/09/16 07:51:16;;;;;;;;;;;21.40;59.50;;;;;;5030884;28;88506;-50
2023/09/16 07:53:41;;;;;;;;;;;21.50;59.50;;;;;;5037058;28;90915;-53
2023/09/16 07:56:07;;;;;;;;;;;21.50;59.60;;;;;;5025983;28;88045;-55
2023/09/16 07:58:32;;;;;;;;;;;21.50;59.50;;;;;;5030934;28;87580;-53
2023/09/16 08:00:58;;;;;;;;;;;21.40;59.50;;;;;;5033140;28;88597;-55
2023/09/16 08:03:23;;;;;;;;;;;21.40;59.40;;;;;;5026459;28;87038;-50
2023/09/16 08:05:50;;;;;;;;;;;21.40;59.50;;;;;;5028207;28;87658;-52
2023/09/16 08:08:15;;;;;;;;;;;21.50;59.40;;;;;;5030172;28;88823;-47
2023/09/16 08:10:44;;;;;;;;;;;21.50;59.40;;;;;;5033929;28;87208;-48
2023/09/16 08:13:10;;;;;;;;;;;21.50;59.40;;;;;;5030098;28;89314;-50
2023/09/16 08:15:35;;;;;;;;;;;21.50;59.40;;;;;;5027827;28;87244;-51
2023/09/16 08:18:01;;;;;;;;;;;21.50;59.40;;;;;;5031500;28;87594;-54
2023/09/16 08:20:26;;;;;;;;;;;21.50;59.30;;;;;;5028449;28;88390;-46
2023/09/16 08:22:52;;;;;;;;;;;21.50;59.20;;;;;;5026914;28;88804;-53
2023/09/16 08:25:17;;;;;;;;;;;21.50;59.20;;;;;;5030073;28;87599;-51
2023/09/16 08:27:43;;;;;;;;;;;21.50;59.10;;;;;;5031677;28;88393;-53
2023/09/16 08:30:08;;;;;;;;;;;21.50;59.90;;;;;;5029061;28;88236;-54
2023/09/16 08:32:36;;;;;;;;;;;21.50;59.20;;;;;;5031969;28;87249;-52
2023/09/16 08:35:01;;;;;;;;;;;21.50;59.20;;;;;;5031079;28;87103;-52
2023/09/16 08:37:27;;;;;;;;;;;21.50;59.20;;;;;;5026058;28;88517;-50
2023/09/16 08:39:52;;;;;;;;;;;21.50;59.30;;;;;;5028691;28;88347;-51
2023/09/16 08:42:28;;;;;;;;;;;21.50;59.50;;;;;;5028055;28;87127;-54
2023/09/16 08:44:53;;;;;;;;;;;21.50;60.00;;;;;;5030608;28;87703;-54
2023/09/16 08:47:31;;;;;;;;;;;21.50;59.40;;;;;;5029225;28;88267;-50
2023/09/16 08:50:04;;;;;;;;;;;21.50;59.40;;;;;;5025489;28;87172;-56
2023/09/16 08:52:33;;;;;;;;;;;21.50;59.40;;;;;;5029111;28;89164;-55
2023/09/16 08:54:59;;;;;;;;;;;21.50;59.50;;;;;;5033594;28;87535;-54
2023/09/16 08:57:25;;;;;;;;;;;21.50;59.50;;;;;;5023238;28;87815;-53
2023/09/16 08:59:50;;;;;;;;;;;21.50;59.50;;;;;;5029468;28;88211;-51
2023/09/16 09:02:16;;;;;;;;;;;21.50;59.60;;;;;;5028285;28;88191;-52
2023/09/16 09:04:42;;;;;;;;;;;21.50;59.60;;;;;;5031674;28;88552;-57
2023/09/16 09:07:08;;;;;;;;;;;21.50;59.70;;;;;;5027206;28;88298;-52
2023/09/16 09:09:33;;;;;;;;;;;21.50;59.80;;;;;;5025008;28;87225;-54
2023/09/16 09:12:00;;;;;;;;;;;21.50;59.70;;;;;;5031075;28;88108;-53
2023/09/16 09:14:26;;;;;;;;;;;21.50;59.90;;;;;;5030625;28;88281;-55
2023/09/16 09:16:52;;;;;;;;;;;21.50;59.70;;;;;;5029220;28;87810;-52
2023/09/16 09:19:20;;;;;;;;;;;21.50;59.80;;;;;;5033871;28;87400;-54
2023/09/16 09:21:46;;;;;;;;;;;21.50;59.90;;;;;;5034177;28;87206;-49
2023/09/16 09:24:12;;;;;;;;;;;21.50;59.90;;;;;;5033545;28;88390;-52
2023/09/16 09:26:37;;;;;;;;;;;21.50;59.80;;;;;;5029011;28;89217;-51
2023/09/16 09:29:03;;;;;;;;;;;21.50;60.00;;;;;;5033975;28;87196;-51
2023/09/16 09:31:29;;;;;;;;;;;21.50;60.10;;;;;;5035431;28;87887;-56
2023/09/16 09:33:55;;;;;;;;;;;21.50;60.00;;;;;;5031819;28;88127;-50
2023/09/16 09:36:21;;;;;;;;;;;21.50;60.10;;;;;;5029303;28;87669;-52
2023/09/16 09:38:47;;;;;;;;;;;21.50;60.00;;;;;;5029461;28;89560;-55
2023/09/16 09:41:13;;;;;;;;;;;21.50;60.00;;;;;;5034982;28;87153;-54
2023/09/16 09:43:38;;;;;;;;;;;21.50;60.00;;;;;;5029828;28;87660;-53
2023/09/16 09:46:04;;;;;;;;;;;21.50;60.00;;;;;;5031512;28;87948;-56
2023/09/16 09:48:30;;;;;;;;;;;21.50;60.00;;;;;;5031205;28;87114;-51
2023/09/16 09:50:55;;;;;;;;;;;21.50;59.90;;;;;;5031973;28;88868;-48
2023/09/16 09:53:24;;;;;;;;;;;21.60;60.00;;;;;;5027691;28;88639;-51
2023/09/16 09:55:50;;;;;;;;;;;21.50;60.00;;;;;;5030932;28;87242;-53
2023/09/16 09:58:16;;;;;;;;;;;21.50;59.90;;;;;;5034457;28;88313;-53
2023/09/16 10:00:46;;;;;;;;;;;21.50;59.90;;;;;;5033661;28;87441;-52
2023/09/16 10:03:13;;;;;;;;;;;21.50;59.70;;;;;;5027764;28;89068;-51
2023/09/16 10:05:38;;;;;;;;;;;21.50;59.70;;;;;;5030782;27;88214;-54
2023/09/16 10:08:04;;;;;;;;;;;21.60;59.80;;;;;;5033585;28;86754;-54
2023/09/16 10:10:30;;;;;;;;;;;21.60;59.80;;;;;;5033481;27;87096;-58
2023/09/16 10:12:56;;;;;;;;;;;21.60;59.80;;;;;;5030450;28;90810;-52
2023/09/16 10:15:23;;;;;;;;;;;21.60;59.70;;;;;;5028084;28;89162;-50
2023/09/16 10:17:48;;;;;;;;;;;21.60;59.50;;;;;;5031671;28;88641;-51
2023/09/16 10:20:15;;;;;;;;;;;21.60;59.60;;;;;;5035537;28;88407;-53
2023/09/16 10:22:41;;;;;;;;;;;21.60;59.60;;;;;;5032521;28;87746;-54
2023/09/16 10:25:07;;;;;;;;;;;21.60;59.60;;;;;;5030049;28;88644;-54
2023/09/16 10:27:39;;;;;;;;;;;21.60;59.60;;;;;;5031203;28;87359;-48
2023/09/16 10:30:05;;;;;;;;;;;21.60;59.60;;;;;;5034951;28;87645;-54
2023/09/16 10:32:31;;;;;;;;;;;21.60;59.60;;;;;;5029981;27;87520;-49
2023/09/16 10:34:58;;;;;;;;;;;21.60;59.60;;;;;;5029660;28;87280;-52
2023/09/16 10:37:24;;;;;;;;;;;21.60;59.70;;;;;;5032746;28;87407;-53
2023/09/16 10:39:49;;;;;;;;;;;21.60;59.80;;;;;;5030560;28;89098;-49
2023/09/16 10:42:19;;;;;;;;;;;21.50;59.60;;;;;;5036166;27;88219;-52
2023/09/16 10:44:45;;;;;;;;;;;21.60;59.80;;;;;;5031153;28;88019;-53
2023/09/16 10:47:12;;;;;;;;;;;21.50;59.80;;;;;;5031571;28;87160;-55
2023/09/16 10:49:38;;;;;;;;;;;21.50;59.70;;;;;;5033337;28;87887;-51
2023/09/16 10:52:04;;;;;;;;;;;21.60;59.80;;;;;;5029714;28;87745;-53
2023/09/16 10:54:34;;;;;;;;;;;21.60;59.70;;;;;;5030903;28;87147;-51
2023/09/16 10:57:07;;;;;;;;;;;21.60;59.80;;;;;;5033922;28;87966;-51
2023/09/16 10:59:34;;;;;;;;;;;21.60;59.70;;;;;;5027781;28;88202;-52
2023/09/16 11:02:15;;;;;;;;;;;21.60;59.80;;;;;;5030457;28;87209;-55
2023/09/16 11:04:40;;;;;;;;;;;21.60;59.80;;;;;;5033493;28;88087;-53
2023/09/16 11:07:06;;;;;;;;;;;21.60;59.70;;;;;;5029203;28;87757;-49
2023/09/16 11:09:32;;;;;;;;;;;21.60;59.70;;;;;;5030695;28;88950;-52
2023/09/16 11:11:57;;;;;;;;;;;21.60;59.80;;;;;;5029686;28;87350;-50
2023/09/16 11:14:23;;;;;;;;;;;21.60;59.70;;;;;;5035147;28;87074;-53
2023/09/16 11:16:49;;;;;;;;;;;21.60;59.80;;;;;;5025497;27;88776;-57
2023/09/16 11:19:15;;;;;;;;;;;21.60;59.70;;;;;;5029374;28;88537;-57
2023/09/16 11:21:43;;;;;;;;;;;21.60;59.60;;;;;;5031472;28;86395;-50
2023/09/16 11:24:08;;;;;;;;;;;21.60;59.70;;;;;;5034903;28;87086;-52
2023/09/16 11:26:37;;;;;;;;;;;21.60;59.70;;;;;;5030761;28;87801;-53
2023/09/16 11:29:22;;;;;;;;;;;21.60;59.60;;;;;;5026298;28;88856;-56
2023/09/16 11:31:48;;;;;;;;;;;21.60;59.70;;;;;;5032247;28;88527;-51
2023/09/16 11:34:16;;;;;;;;;;;21.50;59.80;;;;;;5032812;28;87138;-51
2023/09/16 11:36:45;;;;;;;;;;;21.60;59.70;;;;;;5031188;28;87117;-52
2023/09/16 11:39:10;;;;;;;;;;;21.60;59.70;;;;;;5027064;28;88179;-55
2023/09/16 11:41:36;;;;;;;;;;;21.60;59.70;;;;;;5032618;28;87232;-52
2023/09/16 11:44:02;;;;;;;;;;;21.60;59.50;;;;;;5031323;28;87845;-56
2023/09/16 11:46:29;;;;;;;;;;;21.60;60.20;;;;;;5032457;28;88047;-52
2023/09/16 11:48:55;;;;;;;;;;;21.70;59.80;;;;;;5031213;27;87167;-52
2023/09/16 11:51:21;;;;;;;;;;;21.60;59.90;;;;;;5033111;28;89459;-52
2023/09/16 11:53:47;;;;;;;;;;;21.60;59.90;;;;;;5029338;28;88225;-54
2023/09/16 11:56:13;;;;;;;;;;;21.70;59.90;;;;;;5028786;28;88846;-53
2023/09/16 11:58:40;;;;;;;;;;;21.70;60.10;;;;;;5030739;28;89598;-51
2023/09/16 12:01:05;;;;;;;;;;;21.70;59.90;;;;;;5031851;28;87092;-52
2023/09/16 12:03:31;;;;;;;;;;;21.70;60.00;;;;;;5028022;28;87818;-55
2023/09/16 12:05:57;;;;;;;;;;;21.70;60.10;;;;;;5029794;28;88258;-54
2023/09/16 12:08:23;;;;;;;;;;;21.70;60.00;;;;;;5033205;28;87463;-55
2023/09/16 12:10:49;;;;;;;;;;;21.70;60.10;;;;;;5033198;28;87391;-54
2023/09/16 12:13:27;;;;;;;;;;;21.70;60.30;;;;;;5026317;28;87205;-54
2023/09/16 12:15:53;;;;;;;;;;;21.70;60.40;;;;;;5031389;28;89267;-54
2023/09/16 12:18:18;;;;;;;;;;;21.70;60.20;;;;;;5029240;28;89322;-45
2023/09/16 12:20:45;;;;;;;;;;;21.70;60.30;;;;;;5027702;28;87561;-52
2023/09/16 12:23:10;;;;;;;;;;;21.70;60.30;;;;;;5028661;28;87607;-51
2023/09/16 12:25:42;;;;;;;;;;;21.70;61.00;;;;;;5029391;28;87292;-53
2023/09/16 12:28:16;;;;;;;;;;;21.70;60.60;;;;;;5032935;28;87163;-48
2023/09/16 12:30:42;;;;;;;;;;;21.70;60.40;;;;;;5034167;28;87937;-51
2023/09/16 12:33:08;;;;;;;;;;;21.70;60.60;;;;;;5031021;28;87646;-55
2023/09/16 12:35:38;;;;;;;;;;;21.70;60.50;;;;;;5030077;28;87325;-54
2023/09/16 12:38:03;;;;;;;;;;;21.80;60.50;;;;;;5031608;28;88280;-55
2023/09/16 12:40:30;;;;;;;;;;;21.70;60.40;;;;;;5027715;28;87793;-57
2023/09/16 12:42:55;;;;;;;;;;;21.70;60.40;;;;;;5027819;28;88058;-55
2023/09/16 12:45:21;;;;;;;;;;;21.80;60.70;;;;;;5032861;28;87904;-55
2023/09/16 12:47:47;;;;;;;;;;;21.70;60.40;;;;;;5032669;28;88131;-56
2023/09/16 12:50:13;;;;;;;;;;;21.80;60.40;;;;;;5030333;27;87744;-52
2023/09/16 12:52:38;;;;;;;;;;;21.70;60.50;;;;;;5035366;27;88274;-53
2023/09/16 12:55:09;;;;;;;;;;;21.80;60.40;;;;;;5034288;28;87916;-55
2023/09/16 12:57:35;;;;;;;;;;;21.70;60.20;;;;;;5035355;28;88361;-49
2023/09/16 13:00:03;;;;;;;;;;;21.80;60.40;;;;;;5030810;28;88184;-51
2023/09/16 13:02:29;;;;;;;;;;;21.80;60.30;;;;;;5032248;27;88155;-50
2023/09/16 13:05:11;;;;;;;;;;;21.70;60.10;;;;;;5036158;28;88157;-54
2023/09/16 13:07:37;;;;;;;;;;;21.80;60.40;;;;;;5026430;28;88028;-49
2023/09/16 13:10:03;;;;;;;;;;;21.80;60.30;;;;;;5030914;28;88067;-50
2023/09/16 13:12:30;;;;;;;;;;;21.80;60.30;;;;;;5031523;28;88391;-56
2023/09/16 13:14:56;;;;;;;;;;;21.90;60.30;;;;;;5037586;28;87092;-51
2023/09/16 13:17:22;;;;;;;;;;;21.80;60.20;;;;;;5027880;28;88314;-51
2023/09/16 13:19:48;;;;;;;;;;;21.80;60.10;;;;;;5028990;28;87397;-52
2023/09/16 13:22:13;;;;;;;;;;;21.80;60.40;;;;;;5036243;28;87766;-54
2023/09/16 13:24:45;;;;;;;;;;;21.90;60.30;;;;;;5032790;28;88704;-54
2023/09/16 13:27:17;;;;;;;;;;;21.90;60.40;;;;;;5032399;28;87173;-48
2023/09/16 13:29:43;;;;;;;;;;;21.90;61.10;;;;;;5028917;28;87049;-54
2023/09/16 13:32:09;;;;;;;;;;;21.90;60.50;;;;;;5035108;28;89354;-49
2023/09/16 13:34:41;;;;;;;;;;;21.90;60.50;;;;;;5033580;28;87129;-51
2023/09/16 13:37:07;;;;;;;;;;;21.90;60.50;;;;;;5035274;28;89222;-51
2023/09/16 13:39:42;;;;;;;;;;;21.90;60.40;;;;;;5030115;28;87326;-48
2023/09/16 13:42:08;;;;;;;;;;;21.90;60.40;;;;;;5032680;28;89187;-51
2023/09/16 13:44:33;;;;;;;;;;;21.90;60.40;;;;;;5034816;28;88176;-52
2023/09/16 13:46:59;;;;;;;;;;;22.00;60.40;;;;;;5028453;28;87099;-56
2023/09/16 13:49:24;;;;;;;;;;;21.90;60.40;;;;;;5033121;28;87667;-54
2023/09/16 13:51:50;;;;;;;;;;;21.90;60.50;;;;;;5033059;28;87881;-54
2023/09/16 13:54:16;;;;;;;;;;;22.00;60.50;;;;;;5034040;28;87210;-55
2023/09/16 13:56:41;;;;;;;;;;;22.00;60.30;;;;;;5037500;28;89814;-51
2023/09/16 13:59:07;;;;;;;;;;;22.00;60.40;;;;;;5031482;28;87389;-52
2023/09/16 14:01:32;;;;;;;;;;;21.90;60.30;;;;;;5033186;28;88110;-51
2023/09/16 14:04:01;;;;;;;;;;;21.90;60.30;;;;;;5030950;27;88257;-52
2023/09/16 14:06:27;;;;;;;;;;;22.00;60.60;;;;;;5031963;28;87433;-54
2023/09/16 14:08:52;;;;;;;;;;;22.00;60.50;;;;;;5031338;28;88949;-48
2023/09/16 14:11:21;;;;;;;;;;;22.00;60.40;;;;;;5033015;27;89722;-49